Rafha, Saudi Arabia
Current Conditions -  °F | °C
As of 2:00 PM on Saturday 20 Dec 2014 (Local Time) from OERF Reporting Station
Clear Clear  
Wind Chill: 70°   Ceiling: Unl
Heat Index: 70°   Visibility: 6mi
Dew Point: 39°   Wind: 8mph
Humidity: 33%   Direction: 340°NNW
Pressure: 30"   Gusts: NA
Location:  29.63°N, 43.51°E
Report Text: OERF 201100Z 34007KT CAVOK 21/04 Q1016
Loading
Personal Weather Stations






























Interactive Weather Map New forecast layout! Learn more

10-Day Weather Forecast

Advertisements
Track Severe Weather on mobile